Georg Jacob — A8XG5 — position and weather

sailwx.info

Track history (hours):
 
Tides and Currents Weather Stations Pressure Air Temp Water Temp Dewpoint Dewpoint Depression Visibility Wind Speed Wind Dir Waves Ship Positions

Georg Jacob

Last reported at 2017-Jul-15 01:54 UTC. Time now 2017-Jul-28 13:01 UTC.
Position N 01°18' E 103°21'.
Warning: this ship's position is 13 days out of date.

Length 229 m; draft 8.5 m.

Type: Ship. MMSI: 636092136.

Date/timePositionNaut miles runAvg speedWind from/ knotsBaromVisibWave heightAir tempDewpointWater temp
2017-Jul-15 01:54N 01°18' E 103°21'513.1
2017-Jul-15 01:30N 01°15' E 103°25'612.9
2017-Jul-15 01:01N 01°13' E 103°32'611.9
2017-Jul-15 00:31N 01°12' E 103°37'4 9.0
2017-Jul-15 00:01N 01°10' E 103°42'2 4.6
2017-Jul-14 23:31N 01°09' E 103°44'4 8.3
2017-Jul-14 23:00N 01°10' E 103°48'4 7.4
2017-Jul-14 22:31N 01°12' E 103°51'4 7.3
2017-Jul-14 22:01N 01°13' E 103°54'5 9.5
2017-Jul-14 21:31N 01°15' E 103°59'5 9.9
2017-Jul-14 20:59N 01°16' E 104°04'710.1
2017-Jul-14 20:19N 01°17' E 104°10'2 0.1
2017-Jul-13 09:43N 01°16' E 104°12'313.7
2017-Jul-13 09:30N 01°16' E 104°09'612.3
2017-Jul-13 08:59N 01°15' E 104°03'3 6.8
2017-Jul-13 08:30N 01°17' E 104°00'0 0.1
2017-Jul-13 05:51N 01°18' E 104°00'0 0.2
2017-Jul-13 05:27N 01°18' E 104°00'0 0.0
2017-Jul-13 04:48N 01°18' E 104°00'0 0.2
2017-Jul-13 04:24N 01°18' E 104°00'0 0.1
2017-Jul-13 03:45N 01°18' E 104°00'0 0.1
2017-Jul-13 03:09N 01°18' E 104°00'0 0.2
2017-Jul-13 02:48N 01°18' E 104°00'0 0.0
2017-Jul-13 02:30N 01°18' E 104°00'0 0.0
2017-Jul-13 02:00N 01°18' E 104°00'0 0.0
2017-Jul-13 01:27N 01°18' E 104°00'0 0.0
2017-Jul-13 00:36N 01°18' E 104°00'0 0.3
2017-Jul-13 00:30N 01°18' E 104°00'0 0.0
2017-Jul-12 23:57N 01°18' E 104°00'0 0.1
2017-Jul-12 23:24N 01°18' E 104°00'0 0.0
2017-Jul-12 22:57N 01°18' E 104°00'0 0.0
2017-Jul-12 22:24N 01°18' E 104°00'0 0.0
2017-Jul-12 21:54N 01°18' E 104°00'0 0.0
2017-Jul-12 21:27N 01°18' E 104°00'0 0.1
2017-Jul-12 20:51N 01°18' E 104°00'0 0.0
2017-Jul-12 20:27N 01°18' E 104°00'0 0.0
2017-Jul-12 19:57N 01°18' E 104°00'0 0.0
2017-Jul-12 19:27N 01°18' E 104°00'0 0.0
2017-Jul-12 18:57N 01°18' E 104°00'0 0.0
2017-Jul-12 18:30N 01°18' E 104°00'0 0.0
2017-Jul-12 17:45N 01°18' E 104°00'0 0.1
2017-Jul-12 17:21N 01°18' E 104°00'0 0.4
2017-Jul-12 16:51N 01°18' E 104°00'0 0.2
2017-Jul-12 16:31N 01°18' E 104°00'2 3.3
2017-Jul-12 16:00N 01°16' E 104°01'5 9.8
2017-Jul-12 15:30N 01°16' E 104°06'5 9.4
2017-Jul-12 15:00N 01°19' E 104°10'1 0.0
2017-Jul-10 13:15N 01°19' E 104°09'2 4.3
2017-Jul-10 12:54N 01°18' E 104°08'1 0.1
2017-Jul-10 05:51N 01°18' E 104°08'0 0.0
2017-Jul-09 23:03N 01°18' E 104°08'0 0.0
2017-Jul-09 22:54N 01°18' E 104°08'0 0.0
2017-Jul-09 00:36N 01°18' E 104°08'0 0.0
2017-Jul-09 00:24N 01°18' E 104°08'0 0.0
2017-Jul-09 00:00N 01°18' E 104°08'0 0.0
2017-Jul-08 19:54N 01°18' E 104°08'0 0.0
2017-Jul-08 13:09N 01°18' E 104°08'0 0.6
2017-Jul-08 12:59N 01°18' E 104°08'2 4.4
2017-Jul-08 12:28N 01°17' E 104°10'  
Track history (hours):
 
Tides and Currents Weather Stations Pressure Air Temp Water Temp Dewpoint Dewpoint Depression Visibility Wind Speed Wind Dir Waves Ship Positions

Georg Jacob

Last reported at 2017-Jul-15 01:54 UTC. Time now 2017-Jul-28 13:01 UTC.
Position N 01°18' E 103°21'.
Warning: this ship's position is 13 days out of date.

Length 229 m; draft 8.5 m.

Type: Ship. MMSI: 636092136.

Date/timePositionNaut miles runAvg speedWind from/ knotsBaromVisibWave heightAir tempDewpointWater temp
2017-Jul-15 01:54N 01°18' E 103°21'513.1
2017-Jul-15 01:30N 01°15' E 103°25'612.9
2017-Jul-15 01:01N 01°13' E 103°32'611.9
2017-Jul-15 00:31N 01°12' E 103°37'4 9.0
2017-Jul-15 00:01N 01°10' E 103°42'2 4.6
2017-Jul-14 23:31N 01°09' E 103°44'4 8.3
2017-Jul-14 23:00N 01°10' E 103°48'4 7.4
2017-Jul-14 22:31N 01°12' E 103°51'4 7.3
2017-Jul-14 22:01N 01°13' E 103°54'5 9.5
2017-Jul-14 21:31N 01°15' E 103°59'5 9.9
2017-Jul-14 20:59N 01°16' E 104°04'710.1
2017-Jul-14 20:19N 01°17' E 104°10'2 0.1
2017-Jul-13 09:43N 01°16' E 104°12'313.7
2017-Jul-13 09:30N 01°16' E 104°09'612.3
2017-Jul-13 08:59N 01°15' E 104°03'3 6.8
2017-Jul-13 08:30N 01°17' E 104°00'0 0.1
2017-Jul-13 05:51N 01°18' E 104°00'0 0.2
2017-Jul-13 05:27N 01°18' E 104°00'0 0.0
2017-Jul-13 04:48N 01°18' E 104°00'0 0.2
2017-Jul-13 04:24N 01°18' E 104°00'0 0.1
2017-Jul-13 03:45N 01°18' E 104°00'0 0.1
2017-Jul-13 03:09N 01°18' E 104°00'0 0.2
2017-Jul-13 02:48N 01°18' E 104°00'0 0.0
2017-Jul-13 02:30N 01°18' E 104°00'0 0.0
2017-Jul-13 02:00N 01°18' E 104°00'0 0.0
2017-Jul-13 01:27N 01°18' E 104°00'0 0.0
2017-Jul-13 00:36N 01°18' E 104°00'0 0.3
2017-Jul-13 00:30N 01°18' E 104°00'0 0.0
2017-Jul-12 23:57N 01°18' E 104°00'0 0.1
2017-Jul-12 23:24N 01°18' E 104°00'0 0.0
2017-Jul-12 22:57N 01°18' E 104°00'0 0.0
2017-Jul-12 22:24N 01°18' E 104°00'0 0.0
2017-Jul-12 21:54N 01°18' E 104°00'0 0.0
2017-Jul-12 21:27N 01°18' E 104°00'0 0.1
2017-Jul-12 20:51N 01°18' E 104°00'0 0.0
2017-Jul-12 20:27N 01°18' E 104°00'0 0.0
2017-Jul-12 19:57N 01°18' E 104°00'0 0.0
2017-Jul-12 19:27N 01°18' E 104°00'0 0.0
2017-Jul-12 18:57N 01°18' E 104°00'0 0.0
2017-Jul-12 18:30N 01°18' E 104°00'0 0.0
2017-Jul-12 17:45N 01°18' E 104°00'0 0.1
2017-Jul-12 17:21N 01°18' E 104°00'0 0.4
2017-Jul-12 16:51N 01°18' E 104°00'0 0.2
2017-Jul-12 16:31N 01°18' E 104°00'2 3.3
2017-Jul-12 16:00N 01°16' E 104°01'5 9.8
2017-Jul-12 15:30N 01°16' E 104°06'5 9.4
2017-Jul-12 15:00N 01°19' E 104°10'1 0.0
2017-Jul-10 13:15N 01°19' E 104°09'2 4.3
2017-Jul-10 12:54N 01°18' E 104°08'1 0.1
2017-Jul-10 05:51N 01°18' E 104°08'0 0.0
2017-Jul-09 23:03N 01°18' E 104°08'0 0.0
2017-Jul-09 22:54N 01°18' E 104°08'0 0.0
2017-Jul-09 00:36N 01°18' E 104°08'0 0.0
2017-Jul-09 00:24N 01°18' E 104°08'0 0.0
2017-Jul-09 00:00N 01°18' E 104°08'0 0.0
2017-Jul-08 19:54N 01°18' E 104°08'0 0.0
2017-Jul-08 13:09N 01°18' E 104°08'0 0.6
2017-Jul-08 12:59N 01°18' E 104°08'2 4.4
2017-Jul-08 12:28N 01°17' E 104°10'  

Dump ship's entire track history